sensor_id;sensor_type;location;lat;lon;timestamp;P1;durP1;ratioP1;P2;durP2;ratioP2
29422;SDS011;16399;51.686;8.684;2022-08-01T00:00:22;12.50;;;8.20;;
29422;SDS011;16399;51.686;8.684;2022-08-01T00:03:25;13.93;;;8.05;;
29422;SDS011;16399;51.686;8.684;2022-08-01T00:06:27;14.10;;;8.60;;
29422;SDS011;16399;51.686;8.684;2022-08-01T00:09:29;11.90;;;8.63;;
29422;SDS011;16399;51.686;8.684;2022-08-01T00:12:32;14.38;;;8.10;;
29422;SDS011;16399;51.686;8.684;2022-08-01T00:15:34;14.70;;;8.43;;
29422;SDS011;16399;51.686;8.684;2022-08-01T00:18:36;11.15;;;8.23;;
29422;SDS011;16399;51.686;8.684;2022-08-01T00:21:39;18.10;;;9.15;;
29422;SDS011;16399;51.686;8.684;2022-08-01T00:24:41;12.88;;;7.92;;
29422;SDS011;16399;51.686;8.684;2022-08-01T00:27:43;13.38;;;7.75;;
29422;SDS011;16399;51.686;8.684;2022-08-01T00:30:45;14.50;;;8.60;;
29422;SDS011;16399;51.686;8.684;2022-08-01T00:33:48;14.03;;;8.43;;
29422;SDS011;16399;51.686;8.684;2022-08-01T00:36:50;12.65;;;8.50;;
29422;SDS011;16399;51.686;8.684;2022-08-01T00:39:52;18.57;;;9.35;;
29422;SDS011;16399;51.686;8.684;2022-08-01T00:42:55;14.18;;;9.20;;
29422;SDS011;16399;51.686;8.684;2022-08-01T00:45:57;16.52;;;9.25;;
29422;SDS011;16399;51.686;8.684;2022-08-01T00:48:59;16.12;;;9.55;;
29422;SDS011;16399;51.686;8.684;2022-08-01T00:52:03;16.35;;;9.83;;
29422;SDS011;16399;51.686;8.684;2022-08-01T00:55:06;14.80;;;9.33;;
29422;SDS011;16399;51.686;8.684;2022-08-01T00:58:10;12.70;;;9.20;;
29422;SDS011;16399;51.686;8.684;2022-08-01T01:01:13;17.98;;;9.63;;
29422;SDS011;16399;51.686;8.684;2022-08-01T01:04:15;18.75;;;9.85;;
29422;SDS011;16399;51.686;8.684;2022-08-01T01:07:40;15.98;;;10.10;;
29422;SDS011;16399;51.686;8.684;2022-08-01T01:10:49;13.43;;;9.68;;
29422;SDS011;16399;51.686;8.684;2022-08-01T01:14:04;18.02;;;9.95;;
29422;SDS011;16399;51.686;8.684;2022-08-01T01:17:07;18.73;;;10.60;;
29422;SDS011;16399;51.686;8.684;2022-08-01T01:20:12;16.25;;;10.43;;
29422;SDS011;16399;51.686;8.684;2022-08-01T01:30:00;13.18;;;9.70;;
29422;SDS011;16399;51.686;8.684;2022-08-01T01:33:03;16.97;;;9.95;;
29422;SDS011;16399;51.686;8.684;2022-08-01T01:36:09;15.25;;;9.10;;
29422;SDS011;16399;51.686;8.684;2022-08-01T01:39:13;17.15;;;10.05;;
29422;SDS011;16399;51.686;8.684;2022-08-01T01:42:18;17.45;;;9.60;;
29422;SDS011;16399;51.686;8.684;2022-08-01T01:45:23;15.40;;;10.35;;
29422;SDS011;16399;51.686;8.684;2022-08-01T01:48:26;12.85;;;6.75;;
29422;SDS011;16399;51.686;8.684;2022-08-01T01:51:30;10.05;;;5.92;;
29422;SDS011;16399;51.686;8.684;2022-08-01T01:54:35;6.62;;;4.20;;
29422;SDS011;16399;51.686;8.684;2022-08-01T01:57:39;6.87;;;3.17;;
29422;SDS011;16399;51.686;8.684;2022-08-01T02:03:45;7.05;;;3.50;;
29422;SDS011;16399;51.686;8.684;2022-08-01T02:06:50;5.55;;;3.10;;
29422;SDS011;16399;51.686;8.684;2022-08-01T02:09:53;6.53;;;3.95;;
29422;SDS011;16399;51.686;8.684;2022-08-01T02:13:03;5.70;;;3.60;;
29422;SDS011;16399;51.686;8.684;2022-08-01T02:16:03;7.03;;;4.25;;
29422;SDS011;16399;51.686;8.684;2022-08-01T02:19:06;9.58;;;4.58;;
29422;SDS011;16399;51.686;8.684;2022-08-01T02:22:14;8.10;;;4.85;;
29422;SDS011;16399;51.686;8.684;2022-08-01T02:28:32;9.50;;;5.53;;
29422;SDS011;16399;51.686;8.684;2022-08-01T02:31:38;8.15;;;5.12;;
29422;SDS011;16399;51.686;8.684;2022-08-01T02:34:43;11.43;;;5.83;;
29422;SDS011;16399;51.686;8.684;2022-08-01T02:40:50;10.08;;;5.60;;
29422;SDS011;16399;51.686;8.684;2022-08-01T02:43:56;7.70;;;5.37;;
29422;SDS011;16399;51.686;8.684;2022-08-01T02:47:00;9.53;;;5.50;;
29422;SDS011;16399;51.686;8.684;2022-08-01T02:50:03;10.48;;;6.00;;
29422;SDS011;16399;51.686;8.684;2022-08-01T02:53:08;14.83;;;6.55;;
29422;SDS011;16399;51.686;8.684;2022-08-01T02:56:12;9.80;;;5.97;;
29422;SDS011;16399;51.686;8.684;2022-08-01T02:59:17;10.93;;;6.15;;
29422;SDS011;16399;51.686;8.684;2022-08-01T03:02:23;10.48;;;5.80;;
29422;SDS011;16399;51.686;8.684;2022-08-01T03:05:27;10.48;;;5.97;;
29422;SDS011;16399;51.686;8.684;2022-08-01T03:08:30;11.80;;;5.72;;
29422;SDS011;16399;51.686;8.684;2022-08-01T03:11:34;10.23;;;6.10;;
29422;SDS011;16399;51.686;8.684;2022-08-01T03:14:39;13.78;;;6.72;;
29422;SDS011;16399;51.686;8.684;2022-08-01T03:17:44;12.28;;;6.08;;
29422;SDS011;16399;51.686;8.684;2022-08-01T03:20:49;12.68;;;7.70;;
29422;SDS011;16399;51.686;8.684;2022-08-01T03:23:53;10.00;;;5.72;;
29422;SDS011;16399;51.686;8.684;2022-08-01T03:26:58;12.07;;;6.47;;
29422;SDS011;16399;51.686;8.684;2022-08-01T03:30:03;11.80;;;6.42;;
29422;SDS011;16399;51.686;8.684;2022-08-01T03:33:06;13.87;;;6.20;;
29422;SDS011;16399;51.686;8.684;2022-08-01T03:36:09;10.28;;;6.30;;
29422;SDS011;16399;51.686;8.684;2022-08-01T03:39:14;9.43;;;6.17;;
29422;SDS011;16399;51.686;8.684;2022-08-01T03:42:19;11.60;;;6.17;;
29422;SDS011;16399;51.686;8.684;2022-08-01T03:45:29;8.58;;;5.95;;
29422;SDS011;16399;51.686;8.684;2022-08-01T03:48:28;10.75;;;6.20;;
29422;SDS011;16399;51.686;8.684;2022-08-01T03:51:31;12.47;;;6.28;;
29422;SDS011;16399;51.686;8.684;2022-08-01T03:54:36;14.78;;;6.78;;
29422;SDS011;16399;51.686;8.684;2022-08-01T03:57:40;13.98;;;7.58;;
29422;SDS011;16399;51.686;8.684;2022-08-01T04:00:43;15.65;;;7.95;;
29422;SDS011;16399;51.686;8.684;2022-08-01T04:03:47;9.80;;;6.40;;
29422;SDS011;16399;51.686;8.684;2022-08-01T04:06:50;11.30;;;6.58;;
29422;SDS011;16399;51.686;8.684;2022-08-01T04:09:54;12.07;;;6.72;;
29422;SDS011;16399;51.686;8.684;2022-08-01T04:12:57;11.15;;;6.42;;
29422;SDS011;16399;51.686;8.684;2022-08-01T04:15:59;10.80;;;6.67;;
29422;SDS011;16399;51.686;8.684;2022-08-01T04:19:01;10.55;;;6.45;;
29422;SDS011;16399;51.686;8.684;2022-08-01T04:22:04;13.95;;;5.53;;
29422;SDS011;16399;51.686;8.684;2022-08-01T04:25:09;12.00;;;6.42;;
29422;SDS011;16399;51.686;8.684;2022-08-01T04:28:12;8.43;;;5.15;;
29422;SDS011;16399;51.686;8.684;2022-08-01T04:31:16;9.63;;;5.83;;
29422;SDS011;16399;51.686;8.684;2022-08-01T04:34:20;9.80;;;5.87;;
29422;SDS011;16399;51.686;8.684;2022-08-01T04:37:25;9.18;;;5.08;;
29422;SDS011;16399;51.686;8.684;2022-08-01T04:40:29;8.50;;;5.50;;
29422;SDS011;16399;51.686;8.684;2022-08-01T04:43:32;10.93;;;5.55;;
29422;SDS011;16399;51.686;8.684;2022-08-01T04:46:35;9.53;;;5.53;;
29422;SDS011;16399;51.686;8.684;2022-08-01T04:49:38;10.05;;;5.83;;
29422;SDS011;16399;51.686;8.684;2022-08-01T04:52:42;9.63;;;5.50;;
29422;SDS011;16399;51.686;8.684;2022-08-01T04:55:44;8.95;;;6.28;;
29422;SDS011;16399;51.686;8.684;2022-08-01T04:58:47;10.95;;;5.65;;
29422;SDS011;16399;51.686;8.684;2022-08-01T05:01:51;15.50;;;6.42;;
29422;SDS011;16399;51.686;8.684;2022-08-01T05:04:53;11.35;;;6.42;;
29422;SDS011;16399;51.686;8.684;2022-08-01T05:07:56;11.30;;;7.00;;
29422;SDS011;16399;51.686;8.684;2022-08-01T05:10:58;13.60;;;7.35;;
29422;SDS011;16399;51.686;8.684;2022-08-01T05:14:01;9.43;;;5.60;;
29422;SDS011;16399;51.686;8.684;2022-08-01T05:17:04;11.75;;;6.22;;
29422;SDS011;16399;51.686;8.684;2022-08-01T05:20:07;11.33;;;6.20;;
29422;SDS011;16399;51.686;8.684;2022-08-01T05:23:10;11.00;;;6.00;;
29422;SDS011;16399;51.686;8.684;2022-08-01T05:26:14;10.03;;;6.03;;
29422;SDS011;16399;51.686;8.684;2022-08-01T05:29:16;10.82;;;6.55;;
29422;SDS011;16399;51.686;8.684;2022-08-01T05:32:18;14.40;;;6.58;;
29422;SDS011;16399;51.686;8.684;2022-08-01T05:35:21;12.35;;;6.33;;
29422;SDS011;16399;51.686;8.684;2022-08-01T05:38:23;10.08;;;6.20;;
29422;SDS011;16399;51.686;8.684;2022-08-01T05:41:25;10.43;;;5.83;;
29422;SDS011;16399;51.686;8.684;2022-08-01T05:44:27;8.93;;;5.67;;
29422;SDS011;16399;51.686;8.684;2022-08-01T05:47:30;11.43;;;6.17;;
29422;SDS011;16399;51.686;8.684;2022-08-01T05:50:32;10.35;;;5.75;;
29422;SDS011;16399;51.686;8.684;2022-08-01T05:53:34;12.00;;;6.05;;
29422;SDS011;16399;51.686;8.684;2022-08-01T05:56:37;10.58;;;6.05;;
29422;SDS011;16399;51.686;8.684;2022-08-01T05:59:39;11.70;;;5.95;;
29422;SDS011;16399;51.686;8.684;2022-08-01T06:02:41;9.90;;;5.70;;
29422;SDS011;16399;51.686;8.684;2022-08-01T06:05:44;12.07;;;6.83;;
29422;SDS011;16399;51.686;8.684;2022-08-01T06:08:46;11.25;;;6.42;;
29422;SDS011;16399;51.686;8.684;2022-08-01T06:11:48;13.00;;;6.50;;
29422;SDS011;16399;51.686;8.684;2022-08-01T06:14:51;14.53;;;6.40;;
29422;SDS011;16399;51.686;8.684;2022-08-01T06:17:53;11.80;;;6.60;;
29422;SDS011;16399;51.686;8.684;2022-08-01T06:20:55;10.35;;;5.97;;
29422;SDS011;16399;51.686;8.684;2022-08-01T06:23:58;12.15;;;7.05;;
29422;SDS011;16399;51.686;8.684;2022-08-01T06:27:00;11.18;;;6.72;;
29422;SDS011;16399;51.686;8.684;2022-08-01T06:30:04;10.95;;;6.22;;
29422;SDS011;16399;51.686;8.684;2022-08-01T06:33:07;11.63;;;6.15;;
29422;SDS011;16399;51.686;8.684;2022-08-01T06:36:10;11.50;;;5.90;;
29422;SDS011;16399;51.686;8.684;2022-08-01T06:39:12;9.13;;;4.92;;
29422;SDS011;16399;51.686;8.684;2022-08-01T06:42:14;9.75;;;5.42;;
29422;SDS011;16399;51.686;8.684;2022-08-01T06:45:17;8.33;;;4.40;;
29422;SDS011;16399;51.686;8.684;2022-08-01T06:48:21;10.82;;;4.87;;
29422;SDS011;16399;51.686;8.684;2022-08-01T06:51:24;8.43;;;4.70;;
29422;SDS011;16399;51.686;8.684;2022-08-01T06:54:26;7.75;;;4.20;;
29422;SDS011;16399;51.686;8.684;2022-08-01T06:57:28;6.28;;;4.03;;
29422;SDS011;16399;51.686;8.684;2022-08-01T07:00:31;6.97;;;4.05;;
29422;SDS011;16399;51.686;8.684;2022-08-01T07:03:34;8.85;;;4.45;;
29422;SDS011;16399;51.686;8.684;2022-08-01T07:06:37;8.28;;;4.65;;
29422;SDS011;16399;51.686;8.684;2022-08-01T07:09:39;10.82;;;6.58;;
29422;SDS011;16399;51.686;8.684;2022-08-01T07:12:44;9.70;;;6.58;;
29422;SDS011;16399;51.686;8.684;2022-08-01T07:15:47;10.98;;;6.55;;
29422;SDS011;16399;51.686;8.684;2022-08-01T07:18:49;9.45;;;5.60;;
29422;SDS011;16399;51.686;8.684;2022-08-01T07:21:51;11.20;;;6.30;;
29422;SDS011;16399;51.686;8.684;2022-08-01T07:24:53;10.00;;;6.20;;
29422;SDS011;16399;51.686;8.684;2022-08-01T07:27:56;10.72;;;5.92;;
29422;SDS011;16399;51.686;8.684;2022-08-01T07:30:58;8.85;;;5.10;;
29422;SDS011;16399;51.686;8.684;2022-08-01T07:34:00;7.90;;;4.67;;
29422;SDS011;16399;51.686;8.684;2022-08-01T07:37:03;9.58;;;4.78;;
29422;SDS011;16399;51.686;8.684;2022-08-01T07:40:05;8.63;;;5.42;;
29422;SDS011;16399;51.686;8.684;2022-08-01T07:43:08;5.20;;;3.17;;
29422;SDS011;16399;51.686;8.684;2022-08-01T07:46:10;6.50;;;2.92;;
29422;SDS011;16399;51.686;8.684;2022-08-01T07:49:12;6.90;;;3.72;;
29422;SDS011;16399;51.686;8.684;2022-08-01T07:52:14;6.47;;;3.55;;
29422;SDS011;16399;51.686;8.684;2022-08-01T07:55:17;7.58;;;3.10;;
29422;SDS011;16399;51.686;8.684;2022-08-01T07:58:19;4.33;;;1.92;;
29422;SDS011;16399;51.686;8.684;2022-08-01T08:01:21;3.22;;;1.92;;
29422;SDS011;16399;51.686;8.684;2022-08-01T08:04:24;2.50;;;1.32;;
29422;SDS011;16399;51.686;8.684;2022-08-01T08:07:27;4.10;;;2.50;;
29422;SDS011;16399;51.686;8.684;2022-08-01T08:10:29;5.60;;;3.42;;
29422;SDS011;16399;51.686;8.684;2022-08-01T08:13:31;6.00;;;3.45;;
29422;SDS011;16399;51.686;8.684;2022-08-01T08:16:33;5.37;;;3.08;;
29422;SDS011;16399;51.686;8.684;2022-08-01T08:19:36;5.00;;;2.35;;
29422;SDS011;16399;51.686;8.684;2022-08-01T08:22:39;5.05;;;2.80;;
29422;SDS011;16399;51.686;8.684;2022-08-01T08:25:41;4.70;;;1.90;;
29422;SDS011;16399;51.686;8.684;2022-08-01T08:28:44;4.20;;;1.95;;
29422;SDS011;16399;51.686;8.684;2022-08-01T08:31:47;4.33;;;2.40;;
29422;SDS011;16399;51.686;8.684;2022-08-01T08:34:49;3.42;;;1.80;;
29422;SDS011;16399;51.686;8.684;2022-08-01T08:37:53;3.03;;;1.40;;
29422;SDS011;16399;51.686;8.684;2022-08-01T08:40:56;2.87;;;1.40;;
29422;SDS011;16399;51.686;8.684;2022-08-01T08:44:00;2.75;;;1.50;;
29422;SDS011;16399;51.686;8.684;2022-08-01T08:47:03;2.20;;;1.42;;
29422;SDS011;16399;51.686;8.684;2022-08-01T08:50:08;2.60;;;1.12;;
29422;SDS011;16399;51.686;8.684;2022-08-01T08:53:10;1.72;;;0.90;;
29422;SDS011;16399;51.686;8.684;2022-08-01T08:56:15;2.85;;;1.20;;
29422;SDS011;16399;51.686;8.684;2022-08-01T08:59:17;2.60;;;1.30;;
29422;SDS011;16399;51.686;8.684;2022-08-01T09:02:20;2.35;;;1.05;;
29422;SDS011;16399;51.686;8.684;2022-08-01T09:05:23;2.85;;;1.37;;
29422;SDS011;16399;51.686;8.684;2022-08-01T09:08:27;4.60;;;1.30;;
29422;SDS011;16399;51.686;8.684;2022-08-01T09:11:29;2.87;;;1.60;;
29422;SDS011;16399;51.686;8.684;2022-08-01T09:14:31;3.50;;;1.35;;
29422;SDS011;16399;51.686;8.684;2022-08-01T09:17:41;2.72;;;1.50;;
29422;SDS011;16399;51.686;8.684;2022-08-01T09:20:44;2.98;;;1.47;;
29422;SDS011;16399;51.686;8.684;2022-08-01T09:23:53;2.80;;;1.45;;
29422;SDS011;16399;51.686;8.684;2022-08-01T09:26:57;2.98;;;1.57;;
29422;SDS011;16399;51.686;8.684;2022-08-01T09:30:16;3.42;;;1.52;;
29422;SDS011;16399;51.686;8.684;2022-08-01T09:33:19;3.30;;;1.80;;
29422;SDS011;16399;51.686;8.684;2022-08-01T09:36:25;3.42;;;1.70;;
29422;SDS011;16399;51.686;8.684;2022-08-01T09:39:31;3.33;;;1.80;;
29422;SDS011;16399;51.686;8.684;2022-08-01T09:42:37;2.55;;;1.55;;
29422;SDS011;16399;51.686;8.684;2022-08-01T09:45:39;2.37;;;1.25;;
29422;SDS011;16399;51.686;8.684;2022-08-01T09:48:57;2.58;;;1.40;;
29422;SDS011;16399;51.686;8.684;2022-08-01T09:52:12;4.72;;;1.90;;
29422;SDS011;16399;51.686;8.684;2022-08-01T09:55:20;2.87;;;1.50;;
29422;SDS011;16399;51.686;8.684;2022-08-01T09:58:22;3.13;;;1.53;;
29422;SDS011;16399;51.686;8.684;2022-08-01T10:01:25;2.77;;;1.40;;
29422;SDS011;16399;51.686;8.684;2022-08-01T10:04:28;3.37;;;1.20;;
29422;SDS011;16399;51.686;8.684;2022-08-01T10:07:30;3.22;;;1.45;;
29422;SDS011;16399;51.686;8.684;2022-08-01T10:10:33;3.40;;;1.42;;
29422;SDS011;16399;51.686;8.684;2022-08-01T10:13:35;3.10;;;1.70;;
29422;SDS011;16399;51.686;8.684;2022-08-01T10:16:38;3.95;;;1.98;;
29422;SDS011;16399;51.686;8.684;2022-08-01T10:19:41;3.67;;;2.05;;
29422;SDS011;16399;51.686;8.684;2022-08-01T10:25:47;1.62;;;0.75;;
29422;SDS011;16399;51.686;8.684;2022-08-01T10:28:52;2.00;;;0.80;;
29422;SDS011;16399;51.686;8.684;2022-08-01T10:31:55;1.45;;;0.70;;
29422;SDS011;16399;51.686;8.684;2022-08-01T10:34:58;1.62;;;0.30;;
29422;SDS011;16399;51.686;8.684;2022-08-01T10:38:01;0.30;;;0.30;;
29422;SDS011;16399;51.686;8.684;2022-08-01T10:41:04;0.82;;;0.30;;
29422;SDS011;16399;51.686;8.684;2022-08-01T10:44:07;1.27;;;0.50;;
29422;SDS011;16399;51.686;8.684;2022-08-01T10:47:11;0.53;;;0.40;;
29422;SDS011;16399;51.686;8.684;2022-08-01T10:53:38;0.45;;;0.40;;
29422;SDS011;16399;51.686;8.684;2022-08-01T10:56:49;0.70;;;0.40;;
29422;SDS011;16399;51.686;8.684;2022-08-01T10:59:53;0.75;;;0.60;;
29422;SDS011;16399;51.686;8.684;2022-08-01T11:02:59;0.80;;;0.55;;
29422;SDS011;16399;51.686;8.684;2022-08-01T11:06:03;1.12;;;0.68;;
29422;SDS011;16399;51.686;8.684;2022-08-01T11:12:20;1.17;;;0.78;;
29422;SDS011;16399;51.686;8.684;2022-08-01T11:15:23;1.92;;;0.90;;
29422;SDS011;16399;51.686;8.684;2022-08-01T11:24:54;2.90;;;0.95;;
29422;SDS011;16399;51.686;8.684;2022-08-01T11:28:40;2.47;;;0.82;;
29422;SDS011;16399;51.686;8.684;2022-08-01T11:37:56;3.22;;;1.42;;
29422;SDS011;16399;51.686;8.684;2022-08-01T11:44:18;4.00;;;1.98;;
29422;SDS011;16399;51.686;8.684;2022-08-01T11:50:50;5.60;;;2.70;;
29422;SDS011;16399;51.686;8.684;2022-08-01T11:53:54;4.37;;;2.65;;
29422;SDS011;16399;51.686;8.684;2022-08-01T11:56:57;3.30;;;1.52;;
29422;SDS011;16399;51.686;8.684;2022-08-01T12:00:03;2.33;;;1.22;;
29422;SDS011;16399;51.686;8.684;2022-08-01T12:03:09;2.45;;;1.25;;
29422;SDS011;16399;51.686;8.684;2022-08-01T12:06:11;1.70;;;0.90;;
29422;SDS011;16399;51.686;8.684;2022-08-01T12:09:20;1.90;;;0.90;;
29422;SDS011;16399;51.686;8.684;2022-08-01T12:12:24;1.82;;;0.85;;
29422;SDS011;16399;51.686;8.684;2022-08-01T12:15:31;1.40;;;0.93;;
29422;SDS011;16399;51.686;8.684;2022-08-01T12:18:39;1.47;;;0.85;;
29422;SDS011;16399;51.686;8.684;2022-08-01T12:21:42;1.22;;;0.70;;
29422;SDS011;16399;51.686;8.684;2022-08-01T12:24:45;1.35;;;0.90;;
29422;SDS011;16399;51.686;8.684;2022-08-01T12:27:47;1.45;;;0.80;;
29422;SDS011;16399;51.686;8.684;2022-08-01T12:30:50;1.42;;;0.80;;
29422;SDS011;16399;51.686;8.684;2022-08-01T12:33:53;1.72;;;1.05;;
29422;SDS011;16399;51.686;8.684;2022-08-01T12:36:56;2.37;;;1.10;;
29422;SDS011;16399;51.686;8.684;2022-08-01T12:39:59;3.08;;;1.00;;
29422;SDS011;16399;51.686;8.684;2022-08-01T12:43:04;2.17;;;1.37;;
29422;SDS011;16399;51.686;8.684;2022-08-01T12:46:07;2.35;;;1.30;;
29422;SDS011;16399;51.686;8.684;2022-08-01T12:49:11;2.22;;;1.20;;
29422;SDS011;16399;51.686;8.684;2022-08-01T12:52:14;4.85;;;1.70;;
29422;SDS011;16399;51.686;8.684;2022-08-01T12:55:18;2.43;;;1.37;;
29422;SDS011;16399;51.686;8.684;2022-08-01T12:58:22;1.30;;;0.82;;
29422;SDS011;16399;51.686;8.684;2022-08-01T13:01:30;1.15;;;0.80;;
29422;SDS011;16399;51.686;8.684;2022-08-01T13:04:29;1.67;;;0.90;;
29422;SDS011;16399;51.686;8.684;2022-08-01T13:07:42;2.92;;;1.77;;
29422;SDS011;16399;51.686;8.684;2022-08-01T13:10:49;2.87;;;1.50;;
29422;SDS011;16399;51.686;8.684;2022-08-01T13:13:53;2.62;;;1.40;;
29422;SDS011;16399;51.686;8.684;2022-08-01T13:16:57;1.87;;;1.17;;
29422;SDS011;16399;51.686;8.684;2022-08-01T13:19:59;2.05;;;1.15;;
29422;SDS011;16399;51.686;8.684;2022-08-01T13:23:15;1.82;;;1.05;;
29422;SDS011;16399;51.686;8.684;2022-08-01T13:26:18;1.82;;;0.98;;
29422;SDS011;16399;51.686;8.684;2022-08-01T13:29:28;2.47;;;0.97;;
29422;SDS011;16399;51.686;8.684;2022-08-01T13:32:33;0.68;;;0.60;;
29422;SDS011;16399;51.686;8.684;2022-08-01T13:35:35;0.82;;;0.70;;
29422;SDS011;16399;51.686;8.684;2022-08-01T13:38:38;1.07;;;0.65;;
29422;SDS011;16399;51.686;8.684;2022-08-01T13:41:59;1.32;;;0.70;;
29422;SDS011;16399;51.686;8.684;2022-08-01T13:45:02;1.77;;;0.90;;
29422;SDS011;16399;51.686;8.684;2022-08-01T13:48:07;3.65;;;0.93;;
29422;SDS011;16399;51.686;8.684;2022-08-01T13:51:10;2.12;;;0.98;;
29422;SDS011;16399;51.686;8.684;2022-08-01T13:54:12;1.40;;;0.90;;
29422;SDS011;16399;51.686;8.684;2022-08-01T13:57:14;2.95;;;0.82;;
29422;SDS011;16399;51.686;8.684;2022-08-01T14:00:17;4.50;;;0.88;;
29422;SDS011;16399;51.686;8.684;2022-08-01T14:03:19;1.98;;;0.82;;
29422;SDS011;16399;51.686;8.684;2022-08-01T14:06:21;1.95;;;0.93;;
29422;SDS011;16399;51.686;8.684;2022-08-01T14:09:24;4.62;;;1.50;;
29422;SDS011;16399;51.686;8.684;2022-08-01T14:12:26;2.70;;;1.37;;
29422;SDS011;16399;51.686;8.684;2022-08-01T14:15:28;3.42;;;1.82;;
29422;SDS011;16399;51.686;8.684;2022-08-01T14:18:32;3.92;;;1.70;;
29422;SDS011;16399;51.686;8.684;2022-08-01T14:21:35;3.65;;;1.98;;
29422;SDS011;16399;51.686;8.684;2022-08-01T14:24:37;3.72;;;2.00;;
29422;SDS011;16399;51.686;8.684;2022-08-01T14:27:39;3.55;;;2.00;;
29422;SDS011;16399;51.686;8.684;2022-08-01T14:30:42;3.98;;;2.17;;
29422;SDS011;16399;51.686;8.684;2022-08-01T14:33:44;3.80;;;1.80;;
29422;SDS011;16399;51.686;8.684;2022-08-01T14:36:47;3.67;;;1.77;;
29422;SDS011;16399;51.686;8.684;2022-08-01T14:39:49;2.62;;;1.47;;
29422;SDS011;16399;51.686;8.684;2022-08-01T14:42:51;2.77;;;1.47;;
29422;SDS011;16399;51.686;8.684;2022-08-01T14:45:53;5.20;;;1.50;;
29422;SDS011;16399;51.686;8.684;2022-08-01T14:48:56;1.80;;;1.00;;
29422;SDS011;16399;51.686;8.684;2022-08-01T14:51:58;2.20;;;1.10;;
29422;SDS011;16399;51.686;8.684;2022-08-01T14:55:01;2.37;;;0.80;;
29422;SDS011;16399;51.686;8.684;2022-08-01T14:58:03;1.32;;;0.72;;
29422;SDS011;16399;51.686;8.684;2022-08-01T15:01:06;2.10;;;0.90;;
29422;SDS011;16399;51.686;8.684;2022-08-01T15:04:08;1.57;;;0.70;;
29422;SDS011;16399;51.686;8.684;2022-08-01T15:07:10;3.25;;;0.80;;
29422;SDS011;16399;51.686;8.684;2022-08-01T15:10:13;1.72;;;0.70;;
29422;SDS011;16399;51.686;8.684;2022-08-01T15:13:16;1.42;;;0.70;;
29422;SDS011;16399;51.686;8.684;2022-08-01T15:16:18;3.27;;;0.75;;
29422;SDS011;16399;51.686;8.684;2022-08-01T15:19:21;1.12;;;0.82;;
29422;SDS011;16399;51.686;8.684;2022-08-01T15:22:24;2.37;;;0.70;;
29422;SDS011;16399;51.686;8.684;2022-08-01T15:25:27;1.47;;;0.70;;
29422;SDS011;16399;51.686;8.684;2022-08-01T15:28:29;2.77;;;0.80;;
29422;SDS011;16399;51.686;8.684;2022-08-01T15:31:32;0.93;;;0.68;;
29422;SDS011;16399;51.686;8.684;2022-08-01T15:34:34;1.35;;;0.70;;
29422;SDS011;16399;51.686;8.684;2022-08-01T15:37:37;1.40;;;0.53;;
29422;SDS011;16399;51.686;8.684;2022-08-01T15:40:40;1.67;;;0.80;;
29422;SDS011;16399;51.686;8.684;2022-08-01T15:43:42;1.98;;;0.95;;
29422;SDS011;16399;51.686;8.684;2022-08-01T15:46:45;1.70;;;0.60;;
29422;SDS011;16399;51.686;8.684;2022-08-01T15:49:48;1.92;;;0.80;;
29422;SDS011;16399;51.686;8.684;2022-08-01T15:52:50;2.20;;;0.60;;
29422;SDS011;16399;51.686;8.684;2022-08-01T15:55:52;3.75;;;1.27;;
29422;SDS011;16399;51.686;8.684;2022-08-01T15:58:55;2.12;;;0.82;;
29422;SDS011;16399;51.686;8.684;2022-08-01T16:01:57;2.45;;;0.80;;
29422;SDS011;16399;51.686;8.684;2022-08-01T16:04:59;2.50;;;0.90;;
29422;SDS011;16399;51.686;8.684;2022-08-01T16:08:02;1.92;;;0.80;;
29422;SDS011;16399;51.686;8.684;2022-08-01T16:11:05;5.12;;;0.88;;
29422;SDS011;16399;51.686;8.684;2022-08-01T16:14:07;1.98;;;0.88;;
29422;SDS011;16399;51.686;8.684;2022-08-01T16:17:09;2.75;;;1.10;;
29422;SDS011;16399;51.686;8.684;2022-08-01T16:20:12;1.22;;;0.80;;
29422;SDS011;16399;51.686;8.684;2022-08-01T16:23:14;6.40;;;1.20;;
29422;SDS011;16399;51.686;8.684;2022-08-01T16:26:17;2.75;;;1.20;;
29422;SDS011;16399;51.686;8.684;2022-08-01T16:29:20;4.12;;;1.12;;
29422;SDS011;16399;51.686;8.684;2022-08-01T16:32:23;3.98;;;1.10;;
29422;SDS011;16399;51.686;8.684;2022-08-01T16:35:25;4.42;;;1.52;;
29422;SDS011;16399;51.686;8.684;2022-08-01T16:38:27;3.02;;;1.37;;
29422;SDS011;16399;51.686;8.684;2022-08-01T16:41:30;3.08;;;1.45;;
29422;SDS011;16399;51.686;8.684;2022-08-01T16:44:32;3.00;;;1.35;;
29422;SDS011;16399;51.686;8.684;2022-08-01T16:47:34;2.60;;;1.20;;
29422;SDS011;16399;51.686;8.684;2022-08-01T16:50:36;5.33;;;1.52;;
29422;SDS011;16399;51.686;8.684;2022-08-01T16:53:39;4.15;;;1.57;;
29422;SDS011;16399;51.686;8.684;2022-08-01T16:56:41;5.30;;;1.65;;
29422;SDS011;16399;51.686;8.684;2022-08-01T16:59:43;4.65;;;1.70;;
29422;SDS011;16399;51.686;8.684;2022-08-01T17:02:45;2.37;;;1.32;;
29422;SDS011;16399;51.686;8.684;2022-08-01T17:05:49;4.37;;;1.75;;
29422;SDS011;16399;51.686;8.684;2022-08-01T17:08:52;4.67;;;2.10;;
29422;SDS011;16399;51.686;8.684;2022-08-01T17:11:54;4.45;;;2.10;;
29422;SDS011;16399;51.686;8.684;2022-08-01T17:14:57;3.40;;;1.82;;
29422;SDS011;16399;51.686;8.684;2022-08-01T17:18:00;4.28;;;1.85;;
29422;SDS011;16399;51.686;8.684;2022-08-01T17:21:03;5.53;;;1.60;;
29422;SDS011;16399;51.686;8.684;2022-08-01T17:24:05;4.72;;;2.30;;
29422;SDS011;16399;51.686;8.684;2022-08-01T17:27:07;6.40;;;2.10;;
29422;SDS011;16399;51.686;8.684;2022-08-01T17:30:10;4.17;;;2.30;;
29422;SDS011;16399;51.686;8.684;2022-08-01T17:33:13;5.40;;;2.10;;
29422;SDS011;16399;51.686;8.684;2022-08-01T17:36:15;5.95;;;2.12;;
29422;SDS011;16399;51.686;8.684;2022-08-01T17:39:19;3.05;;;1.80;;
29422;SDS011;16399;51.686;8.684;2022-08-01T17:42:22;4.10;;;1.82;;
29422;SDS011;16399;51.686;8.684;2022-08-01T17:45:26;6.60;;;1.90;;
29422;SDS011;16399;51.686;8.684;2022-08-01T17:48:28;5.58;;;1.57;;
29422;SDS011;16399;51.686;8.684;2022-08-01T17:51:30;4.40;;;2.10;;
29422;SDS011;16399;51.686;8.684;2022-08-01T17:54:32;3.62;;;1.92;;
29422;SDS011;16399;51.686;8.684;2022-08-01T17:57:35;4.60;;;2.05;;
29422;SDS011;16399;51.686;8.684;2022-08-01T18:00:38;5.28;;;2.30;;
29422;SDS011;16399;51.686;8.684;2022-08-01T18:03:41;4.35;;;2.20;;
29422;SDS011;16399;51.686;8.684;2022-08-01T18:06:44;3.90;;;2.00;;
29422;SDS011;16399;51.686;8.684;2022-08-01T18:09:46;5.67;;;2.40;;
29422;SDS011;16399;51.686;8.684;2022-08-01T18:12:49;4.40;;;2.35;;
29422;SDS011;16399;51.686;8.684;2022-08-01T18:15:51;5.03;;;2.70;;
29422;SDS011;16399;51.686;8.684;2022-08-01T18:18:53;6.20;;;2.35;;
29422;SDS011;16399;51.686;8.684;2022-08-01T18:21:55;4.45;;;2.42;;
29422;SDS011;16399;51.686;8.684;2022-08-01T18:24:58;4.03;;;2.17;;
29422;SDS011;16399;51.686;8.684;2022-08-01T18:28:00;6.15;;;2.35;;
29422;SDS011;16399;51.686;8.684;2022-08-01T18:31:02;4.22;;;2.00;;
29422;SDS011;16399;51.686;8.684;2022-08-01T18:34:08;5.05;;;2.30;;
29422;SDS011;16399;51.686;8.684;2022-08-01T18:37:11;5.83;;;1.95;;
29422;SDS011;16399;51.686;8.684;2022-08-01T18:40:15;6.10;;;2.10;;
29422;SDS011;16399;51.686;8.684;2022-08-01T18:43:17;6.12;;;2.25;;
29422;SDS011;16399;51.686;8.684;2022-08-01T18:46:20;3.37;;;2.00;;
29422;SDS011;16399;51.686;8.684;2022-08-01T18:49:22;4.55;;;1.92;;
29422;SDS011;16399;51.686;8.684;2022-08-01T18:52:25;6.20;;;1.90;;
29422;SDS011;16399;51.686;8.684;2022-08-01T18:55:27;6.08;;;2.08;;
29422;SDS011;16399;51.686;8.684;2022-08-01T18:58:29;6.40;;;2.27;;
29422;SDS011;16399;51.686;8.684;2022-08-01T19:01:31;4.12;;;2.22;;
29422;SDS011;16399;51.686;8.684;2022-08-01T19:04:34;4.78;;;2.42;;